ENAN/ANX METAR and TAF weather

Enter ICAO airport designator
Station Type Date Time Source
ENAN METAR 2022/11/30 11:20 UTC NOAA

ENAN 301120Z 19010KT 9999 BKN024 03/01 Q1031


Station Type Date Time Source
ENAN Decoded METAR 2022/11/30 11:20 UTC NOAA

Andoya, Norway (ENAN) 69-18N 016-09E 14M
Nov 30, 2022 - 06:20 AM EST / 2022.11.30 1120 UTC
Wind: from the S (190 degrees) at 12 MPH (10 KT):0
Visibility: greater than 7 mile(s):0
Sky conditions: mostly cloudy
Temperature: 37 F (3 C)
Dew Point: 33 F (1 C)
Relative Humidity: 86%
Pressure (altimeter): 30.45 in. Hg (1031 hPa)
ob: ENAN 301120Z 19010KT 9999 BKN024 03/01 Q1031
cycle: 11

Station Type Date Time Source
ENAN TAF 2022/11/30 06:57 UTC NOAA

TAF TAF ENAN 300500Z 3006/0106 20008KT 9999 BKN025

Example: see airport list